Time;durP1;ratioP1;P1;durP2;ratioP2;P2;SDS_P1;SDS_P2;PMS_P1;PMS_P2;Temp;Humidity;BMP_temperature;BMP_pressure;BME280_temperature;BME280_humidity;BME280_pressure;Samples;Min_cycle;Max_cycle;Signal;HPM_P1;HPM_P2
2024/01/19 00:00:51;;;;;;;13.53;7.10;;;;;;;;;;5048196;28;20225;-72
2024/01/19 00:03:17;;;;;;;13.63;7.10;;;;;;;;;;5031532;28;20224;-71
2024/01/19 00:05:42;;;;;;;15.37;8.00;;;;;;;;;;5048149;28;20220;-72
2024/01/19 00:08:07;;;;;;;15.13;7.63;;;;;;;;;;5047526;28;20224;-71
2024/01/19 00:10:33;;;;;;;15.60;7.63;;;;;;;;;;5065942;28;20243;-72
2024/01/19 00:12:58;;;;;;;16.97;8.37;;;;;;;;;;5064952;28;20224;-72
2024/01/19 00:15:24;;;;;;;18.60;7.87;;;;;;;;;;5048539;28;20217;-72
2024/01/19 00:17:49;;;;;;;14.63;7.37;;;;;;;;;;5065057;28;20220;-72
2024/01/19 00:20:14;;;;;;;14.03;7.63;;;;;;;;;;5030597;28;20213;-72
2024/01/19 00:22:40;;;;;;;15.80;9.00;;;;;;;;;;5048232;28;20228;-72
2024/01/19 00:25:05;;;;;;;15.53;7.53;;;;;;;;;;5047073;28;20686;-72
2024/01/19 00:27:31;;;;;;;17.10;8.03;;;;;;;;;;5046044;28;20354;-72
2024/01/19 00:29:56;;;;;;;15.63;8.07;;;;;;;;;;5064651;28;20605;-72
2024/01/19 00:32:21;;;;;;;17.20;8.10;;;;;;;;;;5047327;28;20251;-71
2024/01/19 00:34:47;;;;;;;18.83;8.90;;;;;;;;;;5031524;28;20426;-72
2024/01/19 00:37:12;;;;;;;13.80;6.80;;;;;;;;;;5046883;28;20241;-72
2024/01/19 00:39:37;;;;;;;12.67;6.70;;;;;;;;;;5048089;28;20223;-71
2024/01/19 00:42:03;;;;;;;13.57;6.73;;;;;;;;;;5046618;28;20947;-72
2024/01/19 00:44:28;;;;;;;11.80;6.77;;;;;;;;;;5066218;28;20710;-73
2024/01/19 00:46:54;;;;;;;12.90;6.80;;;;;;;;;;5047682;28;20220;-72
2024/01/19 00:49:19;;;;;;;14.20;7.00;;;;;;;;;;5041694;28;20955;-72
2024/01/19 00:51:44;;;;;;;12.93;7.20;;;;;;;;;;5031464;28;20269;-73
2024/01/19 00:54:10;;;;;;;15.07;6.73;;;;;;;;;;5047123;28;20647;-72
2024/01/19 00:56:35;;;;;;;14.07;7.20;;;;;;;;;;5065100;28;20229;-72
2024/01/19 00:59:00;;;;;;;12.13;6.70;;;;;;;;;;5063782;28;20217;-73
2024/01/19 01:01:26;;;;;;;12.40;6.47;;;;;;;;;;5030769;28;20340;-72
2024/01/19 01:03:51;;;;;;;11.07;6.60;;;;;;;;;;5047333;28;20224;-72
2024/01/19 01:06:16;;;;;;;15.07;6.67;;;;;;;;;;5064628;28;20323;-71
2024/01/19 01:08:42;;;;;;;12.10;6.43;;;;;;;;;;5064195;28;20248;-72
2024/01/19 01:11:07;;;;;;;12.00;6.47;;;;;;;;;;5023536;28;20228;-72
2024/01/19 01:13:33;;;;;;;11.67;6.33;;;;;;;;;;5029775;28;20657;-72
2024/01/19 01:15:58;;;;;;;13.80;6.80;;;;;;;;;;5029381;28;21052;-72
2024/01/19 01:18:23;;;;;;;10.33;6.10;;;;;;;;;;5065185;28;20282;-73
2024/01/19 01:20:50;;;;;;;13.07;6.80;;;;;;;;;;5023752;28;21058;-72
2024/01/19 01:23:15;;;;;;;11.00;6.17;;;;;;;;;;5045539;28;20256;-72
2024/01/19 01:25:41;;;;;;;12.30;6.47;;;;;;;;;;5046830;28;20741;-72
2024/01/19 01:28:06;;;;;;;14.10;6.17;;;;;;;;;;5062493;28;20225;-72
2024/01/19 01:30:31;;;;;;;12.40;6.63;;;;;;;;;;5065756;28;20944;-72
2024/01/19 01:32:57;;;;;;;12.97;6.50;;;;;;;;;;5046193;28;20231;-73
2024/01/19 01:35:22;;;;;;;11.43;6.67;;;;;;;;;;5047906;28;20221;-72
2024/01/19 01:37:48;;;;;;;13.27;6.60;;;;;;;;;;5046684;28;20237;-71
2024/01/19 01:40:13;;;;;;;14.87;6.80;;;;;;;;;;5063262;28;20241;-72
2024/01/19 01:42:38;;;;;;;10.97;6.20;;;;;;;;;;5029208;28;20221;-71
2024/01/19 01:45:04;;;;;;;13.60;6.37;;;;;;;;;;5045571;28;20216;-72
2024/01/19 01:47:29;;;;;;;11.77;6.47;;;;;;;;;;5063896;28;20224;-72
2024/01/19 01:49:55;;;;;;;11.80;6.43;;;;;;;;;;5046001;28;20689;-71
2024/01/19 01:52:20;;;;;;;13.80;7.37;;;;;;;;;;5045668;28;20283;-72
2024/01/19 01:54:45;;;;;;;18.93;8.70;;;;;;;;;;5046256;28;20270;-71
2024/01/19 01:57:11;;;;;;;15.30;8.10;;;;;;;;;;5062682;28;20305;-71
2024/01/19 01:59:36;;;;;;;12.27;7.33;;;;;;;;;;5046290;28;20216;-72
2024/01/19 02:02:02;;;;;;;13.90;7.50;;;;;;;;;;5062232;28;20216;-72
2024/01/19 02:04:28;;;;;;;11.80;6.60;;;;;;;;;;5062987;28;20216;-71
2024/01/19 02:06:53;;;;;;;13.87;6.80;;;;;;;;;;5062925;28;20235;-71
2024/01/19 02:09:19;;;;;;;13.77;7.10;;;;;;;;;;5045059;28;20229;-71
2024/01/19 02:11:44;;;;;;;12.90;7.00;;;;;;;;;;5064005;28;20232;-72
2024/01/19 02:14:10;;;;;;;12.90;6.63;;;;;;;;;;5062000;28;20363;-72
2024/01/19 02:16:36;;;;;;;20.27;11.97;;;;;;;;;;5061772;28;20235;-71
2024/01/19 02:19:01;;;;;;;24.20;13.43;;;;;;;;;;5045455;28;20239;-72
2024/01/19 02:21:27;;;;;;;14.97;8.57;;;;;;;;;;5029081;28;20402;-72
2024/01/19 02:23:58;;;;;;;15.23;7.90;;;;;;;;;;5044410;28;20224;-71
2024/01/19 02:26:23;;;;;;;13.10;6.80;;;;;;;;;;5062558;28;20221;-72
2024/01/19 02:28:49;;;;;;;13.63;6.80;;;;;;;;;;5046184;28;20224;-71
2024/01/19 02:31:15;;;;;;;11.20;6.67;;;;;;;;;;5044747;28;20224;-71
2024/01/19 02:33:40;;;;;;;11.07;6.97;;;;;;;;;;5063510;28;20220;-72
2024/01/19 02:36:06;;;;;;;12.97;6.70;;;;;;;;;;5045348;28;20274;-72
2024/01/19 02:38:31;;;;;;;11.30;7.00;;;;;;;;;;5062735;28;20258;-71
2024/01/19 02:40:56;;;;;;;12.17;6.70;;;;;;;;;;5063301;28;20728;-72
2024/01/19 02:43:22;;;;;;;11.57;6.53;;;;;;;;;;5063666;28;20213;-73
2024/01/19 02:45:47;;;;;;;13.13;7.47;;;;;;;;;;5063008;28;20239;-72
2024/01/19 02:48:12;;;;;;;14.07;7.73;;;;;;;;;;5040991;28;20224;-72
2024/01/19 02:50:38;;;;;;;15.70;7.90;;;;;;;;;;5063642;28;20295;-72
2024/01/19 02:53:03;;;;;;;14.37;8.50;;;;;;;;;;5060758;28;20347;-72
2024/01/19 02:55:28;;;;;;;16.10;8.87;;;;;;;;;;5062468;28;20220;-72
2024/01/19 02:57:54;;;;;;;14.97;9.03;;;;;;;;;;5063620;28;20230;-73
2024/01/19 03:00:19;;;;;;;15.80;8.93;;;;;;;;;;5045487;28;20252;-72
2024/01/19 03:02:44;;;;;;;15.27;8.80;;;;;;;;;;5061555;28;20217;-72
2024/01/19 03:05:10;;;;;;;17.07;9.07;;;;;;;;;;5028544;28;20259;-72
2024/01/19 03:07:35;;;;;;;15.60;8.90;;;;;;;;;;5029045;28;20617;-73
2024/01/19 03:10:00;;;;;;;15.23;8.43;;;;;;;;;;5044708;28;20233;-73
2024/01/19 03:12:26;;;;;;;15.97;8.57;;;;;;;;;;5045049;28;20322;-72
2024/01/19 03:14:51;;;;;;;13.43;7.73;;;;;;;;;;5045419;28;20221;-72
2024/01/19 03:17:16;;;;;;;18.03;8.57;;;;;;;;;;5044544;28;20239;-72
2024/01/19 03:19:43;;;;;;;15.80;7.67;;;;;;;;;;5061580;28;20217;-73
2024/01/19 03:22:08;;;;;;;21.57;10.60;;;;;;;;;;5044507;28;20252;-72
2024/01/19 03:24:34;;;;;;;18.97;9.20;;;;;;;;;;5046618;28;20251;-72
2024/01/19 03:26:59;;;;;;;18.30;9.00;;;;;;;;;;5045684;28;20837;-72
2024/01/19 03:29:26;;;;;;;18.60;8.60;;;;;;;;;;5063644;28;20308;-72
2024/01/19 03:31:52;;;;;;;17.77;8.50;;;;;;;;;;5044839;28;20737;-72
2024/01/19 03:34:17;;;;;;;15.07;8.23;;;;;;;;;;5062461;28;20224;-72
2024/01/19 03:36:43;;;;;;;14.37;8.57;;;;;;;;;;5040885;28;20247;-73
2024/01/19 03:39:08;;;;;;;16.87;8.60;;;;;;;;;;5063090;28;20368;-74
2024/01/19 03:41:33;;;;;;;18.10;8.40;;;;;;;;;;5062354;28;20721;-72
2024/01/19 03:43:59;;;;;;;14.40;7.83;;;;;;;;;;5044097;28;20709;-73
2024/01/19 03:46:25;;;;;;;13.33;7.50;;;;;;;;;;5063284;28;20224;-73
2024/01/19 03:48:50;;;;;;;15.50;8.23;;;;;;;;;;5060841;28;20221;-72
2024/01/19 03:51:15;;;;;;;13.83;7.03;;;;;;;;;;5061268;28;20223;-73
2024/01/19 03:53:42;;;;;;;16.17;7.90;;;;;;;;;;5028477;28;20582;-73
2024/01/19 03:56:09;;;;;;;16.93;7.50;;;;;;;;;;5062181;28;20362;-73
2024/01/19 03:58:34;;;;;;;13.53;7.07;;;;;;;;;;5060422;28;20235;-73
2024/01/19 04:00:59;;;;;;;14.27;7.23;;;;;;;;;;5044290;28;20220;-72
2024/01/19 04:03:25;;;;;;;12.60;6.87;;;;;;;;;;5044192;28;20232;-72
2024/01/19 04:05:50;;;;;;;14.00;6.30;;;;;;;;;;5065892;28;20220;-72
2024/01/19 04:08:16;;;;;;;10.83;6.33;;;;;;;;;;5064869;28;20951;-72
2024/01/19 04:10:41;;;;;;;12.50;6.10;;;;;;;;;;5048280;28;20283;-72
2024/01/19 04:13:06;;;;;;;9.37;6.00;;;;;;;;;;5047358;28;20230;-72
2024/01/19 04:15:32;;;;;;;11.07;5.93;;;;;;;;;;5064406;28;20220;-72
2024/01/19 04:17:57;;;;;;;9.83;5.70;;;;;;;;;;5031194;28;21067;-72
2024/01/19 04:20:22;;;;;;;10.73;5.70;;;;;;;;;;5048363;28;20217;-72
2024/01/19 04:22:48;;;;;;;13.97;5.90;;;;;;;;;;5064520;28;20216;-72
2024/01/19 04:25:13;;;;;;;13.13;5.90;;;;;;;;;;5065523;28;20225;-71
2024/01/19 04:27:39;;;;;;;12.00;5.43;;;;;;;;;;5048126;28;20236;-71
2024/01/19 04:30:04;;;;;;;9.47;5.80;;;;;;;;;;5063829;28;21282;-72
2024/01/19 04:32:29;;;;;;;9.53;5.80;;;;;;;;;;5046740;28;20213;-71
2024/01/19 04:34:55;;;;;;;11.23;5.73;;;;;;;;;;5047324;28;20224;-70
2024/01/19 04:37:20;;;;;;;10.77;5.67;;;;;;;;;;5064447;28;20225;-71
2024/01/19 04:39:46;;;;;;;10.20;5.30;;;;;;;;;;5047834;28;20280;-70
2024/01/19 04:42:12;;;;;;;10.53;5.73;;;;;;;;;;5063776;28;20304;-72
2024/01/19 04:44:37;;;;;;;9.87;5.60;;;;;;;;;;5048150;28;20227;-72
2024/01/19 04:47:03;;;;;;;12.73;5.70;;;;;;;;;;5065395;28;20308;-72
2024/01/19 04:49:28;;;;;;;11.20;5.57;;;;;;;;;;5065347;28;20307;-71
2024/01/19 04:51:54;;;;;;;9.83;5.50;;;;;;;;;;5031751;28;20803;-71
2024/01/19 04:54:19;;;;;;;10.93;5.80;;;;;;;;;;5063758;28;20221;-72
2024/01/19 04:56:44;;;;;;;10.57;5.77;;;;;;;;;;5065879;28;20316;-72
2024/01/19 04:59:10;;;;;;;11.97;5.93;;;;;;;;;;5047186;28;20224;-71
2024/01/19 05:01:35;;;;;;;9.67;5.70;;;;;;;;;;5030907;28;20224;-71
2024/01/19 05:04:00;;;;;;;10.83;6.00;;;;;;;;;;5046708;28;20832;-72
2024/01/19 05:06:26;;;;;;;10.60;5.60;;;;;;;;;;5047480;28;20219;-72
2024/01/19 05:08:51;;;;;;;10.03;5.63;;;;;;;;;;5063503;28;20243;-72
2024/01/19 05:11:16;;;;;;;11.00;5.60;;;;;;;;;;5064363;28;20225;-71
2024/01/19 05:13:42;;;;;;;12.60;6.63;;;;;;;;;;5047249;28;20221;-71
2024/01/19 05:16:08;;;;;;;14.47;6.97;;;;;;;;;;5046943;28;20231;-71
2024/01/19 05:18:33;;;;;;;17.77;8.00;;;;;;;;;;5065489;28;20232;-71
2024/01/19 05:20:58;;;;;;;11.33;6.80;;;;;;;;;;5063116;28;20221;-72
2024/01/19 05:23:24;;;;;;;15.40;6.60;;;;;;;;;;5047070;28;20684;-72
2024/01/19 05:25:49;;;;;;;11.47;6.40;;;;;;;;;;5064685;28;20762;-71
2024/01/19 05:28:15;;;;;;;14.40;7.03;;;;;;;;;;5046252;28;20281;-71
2024/01/19 05:30:40;;;;;;;13.97;6.73;;;;;;;;;;5047087;28;20221;-72
2024/01/19 05:33:05;;;;;;;11.23;6.63;;;;;;;;;;5061808;28;20610;-72
2024/01/19 05:35:31;;;;;;;12.33;7.10;;;;;;;;;;5065070;28;20213;-71
2024/01/19 05:37:56;;;;;;;22.23;11.93;;;;;;;;;;5045727;28;20220;-72
2024/01/19 05:40:21;;;;;;;25.90;12.77;;;;;;;;;;5064300;28;20223;-72
2024/01/19 05:42:47;;;;;;;22.10;11.50;;;;;;;;;;5046138;28;21009;-71
2024/01/19 05:45:12;;;;;;;22.10;11.80;;;;;;;;;;5038587;28;20236;-72
2024/01/19 05:47:38;;;;;;;24.83;11.90;;;;;;;;;;5029231;28;20300;-72
2024/01/19 05:50:03;;;;;;;21.27;11.07;;;;;;;;;;5044688;28;20625;-72
2024/01/19 05:52:29;;;;;;;19.77;11.30;;;;;;;;;;5045618;28;20216;-72
2024/01/19 05:54:54;;;;;;;21.03;11.40;;;;;;;;;;5028107;28;20220;-71
2024/01/19 05:57:19;;;;;;;22.03;10.90;;;;;;;;;;5043549;28;20364;-71
2024/01/19 05:59:45;;;;;;;22.80;11.27;;;;;;;;;;5028023;28;20309;-71
2024/01/19 06:02:10;;;;;;;20.47;10.90;;;;;;;;;;5028117;28;20316;-71
2024/01/19 06:04:40;;;;;;;23.13;10.90;;;;;;;;;;5027866;28;20229;-71
2024/01/19 06:07:06;;;;;;;20.63;10.23;;;;;;;;;;5044999;28;20344;-70
2024/01/19 06:09:31;;;;;;;18.20;10.10;;;;;;;;;;5044393;28;20311;-71
2024/01/19 06:11:57;;;;;;;20.90;10.10;;;;;;;;;;5045329;28;20225;-71
2024/01/19 06:14:22;;;;;;;20.13;9.50;;;;;;;;;;5046177;28;20224;-71
2024/01/19 06:16:48;;;;;;;19.67;9.63;;;;;;;;;;5045960;28;20335;-71
2024/01/19 06:19:14;;;;;;;15.70;8.50;;;;;;;;;;5045088;28;20793;-72
2024/01/19 06:21:42;;;;;;;14.30;7.77;;;;;;;;;;5062256;28;20323;-71
2024/01/19 06:24:08;;;;;;;15.40;8.30;;;;;;;;;;5041062;28;20216;-73
2024/01/19 06:26:33;;;;;;;16.33;8.03;;;;;;;;;;5043665;28;20224;-72
2024/01/19 06:28:58;;;;;;;14.20;7.60;;;;;;;;;;5060575;28;20228;-72
2024/01/19 06:31:24;;;;;;;15.33;7.70;;;;;;;;;;5061177;28;20702;-72
2024/01/19 06:33:49;;;;;;;12.10;7.30;;;;;;;;;;5043984;28;20228;-72
2024/01/19 06:36:14;;;;;;;14.10;7.53;;;;;;;;;;5026223;28;20255;-73
2024/01/19 06:38:40;;;;;;;13.23;7.73;;;;;;;;;;5061340;28;20235;-73
2024/01/19 06:41:05;;;;;;;13.93;7.10;;;;;;;;;;5062360;28;20220;-73
2024/01/19 06:43:31;;;;;;;17.13;7.37;;;;;;;;;;5058629;28;20217;-72
2024/01/19 06:45:56;;;;;;;14.80;7.77;;;;;;;;;;5027128;28;20223;-72
2024/01/19 06:48:21;;;;;;;15.27;7.13;;;;;;;;;;5043724;28;20217;-72
2024/01/19 06:50:47;;;;;;;15.87;7.03;;;;;;;;;;5038397;28;21017;-72
2024/01/19 06:53:12;;;;;;;16.20;8.33;;;;;;;;;;5059990;28;20960;-71
2024/01/19 06:55:37;;;;;;;13.27;7.70;;;;;;;;;;5026479;28;20231;-72
2024/01/19 06:58:03;;;;;;;13.60;7.23;;;;;;;;;;5044571;28;20718;-72
2024/01/19 07:00:28;;;;;;;15.53;9.03;;;;;;;;;;5061889;28;20216;-71
2024/01/19 07:02:54;;;;;;;15.40;8.13;;;;;;;;;;5061310;28;20826;-72
2024/01/19 07:05:19;;;;;;;17.37;7.83;;;;;;;;;;5045323;28;20259;-72
2024/01/19 07:07:45;;;;;;;15.17;8.20;;;;;;;;;;5029240;28;20686;-72
2024/01/19 07:10:10;;;;;;;15.20;8.20;;;;;;;;;;5056433;28;20242;-72
2024/01/19 07:12:36;;;;;;;16.33;8.57;;;;;;;;;;5042544;28;20670;-72
2024/01/19 07:15:01;;;;;;;18.40;9.70;;;;;;;;;;5058582;28;20213;-72
2024/01/19 07:17:26;;;;;;;17.70;9.53;;;;;;;;;;5058032;28;20237;-72
2024/01/19 07:19:52;;;;;;;16.83;8.73;;;;;;;;;;5058651;28;20225;-72
2024/01/19 07:22:17;;;;;;;19.67;9.43;;;;;;;;;;5025278;28;20217;-73
2024/01/19 07:24:42;;;;;;;16.90;9.47;;;;;;;;;;5024933;28;20229;-73
2024/01/19 07:27:08;;;;;;;16.07;9.30;;;;;;;;;;5042603;28;20217;-72
2024/01/19 07:29:33;;;;;;;16.77;9.23;;;;;;;;;;5043051;28;20232;-73
2024/01/19 07:31:59;;;;;;;15.63;9.53;;;;;;;;;;5042604;28;20227;-73
2024/01/19 07:34:25;;;;;;;17.53;9.37;;;;;;;;;;5057901;28;20229;-73
2024/01/19 07:36:50;;;;;;;17.60;10.13;;;;;;;;;;5042707;28;20229;-73
2024/01/19 07:39:18;;;;;;;17.97;10.10;;;;;;;;;;5041227;28;20241;-72
2024/01/19 07:41:44;;;;;;;19.83;9.73;;;;;;;;;;5045457;28;20221;-72
2024/01/19 07:44:09;;;;;;;19.07;10.70;;;;;;;;;;5029005;28;20231;-73
2024/01/19 07:46:35;;;;;;;18.70;10.10;;;;;;;;;;5045649;28;20279;-71
2024/01/19 07:49:01;;;;;;;19.93;11.03;;;;;;;;;;5028317;28;20225;-73
2024/01/19 07:51:27;;;;;;;21.83;12.40;;;;;;;;;;5045932;28;20779;-73
2024/01/19 07:53:54;;;;;;;27.73;15.37;;;;;;;;;;5045173;28;20230;-73
2024/01/19 07:56:19;;;;;;;29.77;17.37;;;;;;;;;;5045355;28;20218;-73
2024/01/19 07:58:45;;;;;;;32.80;17.97;;;;;;;;;;5043937;28;20299;-73
2024/01/19 08:01:10;;;;;;;34.37;17.90;;;;;;;;;;5043853;28;20213;-73
2024/01/19 08:03:37;;;;;;;32.63;18.47;;;;;;;;;;5028655;28;20225;-72
2024/01/19 08:06:02;;;;;;;33.10;18.40;;;;;;;;;;5044486;28;20213;-74
2024/01/19 08:08:27;;;;;;;34.40;18.97;;;;;;;;;;5048173;28;20237;-73
2024/01/19 08:10:53;;;;;;;38.10;21.13;;;;;;;;;;5048494;28;20225;-72
2024/01/19 08:13:18;;;;;;;40.03;22.00;;;;;;;;;;5066061;28;20224;-72
2024/01/19 08:15:43;;;;;;;36.17;20.07;;;;;;;;;;5048251;28;20220;-73
2024/01/19 08:18:09;;;;;;;39.13;21.23;;;;;;;;;;5047996;28;20228;-73
2024/01/19 08:20:34;;;;;;;37.30;20.67;;;;;;;;;;5045403;28;20851;-73
2024/01/19 08:23:01;;;;;;;38.10;20.40;;;;;;;;;;5065542;28;20878;-73
2024/01/19 08:25:26;;;;;;;40.00;21.77;;;;;;;;;;5048679;28;20252;-72
2024/01/19 08:27:52;;;;;;;42.03;22.47;;;;;;;;;;5031418;28;20247;-71
2024/01/19 08:30:18;;;;;;;45.07;23.67;;;;;;;;;;5031239;28;20235;-72
2024/01/19 08:32:44;;;;;;;45.80;23.87;;;;;;;;;;5047614;28;20224;-71
2024/01/19 08:35:09;;;;;;;42.23;23.13;;;;;;;;;;5064951;28;20231;-72
2024/01/19 08:37:35;;;;;;;43.37;23.10;;;;;;;;;;5031084;28;20228;-72
2024/01/19 08:40:00;;;;;;;40.53;22.63;;;;;;;;;;5065508;28;20232;-72
2024/01/19 08:42:26;;;;;;;42.50;21.97;;;;;;;;;;5065839;28;20670;-72
2024/01/19 08:44:51;;;;;;;34.20;18.50;;;;;;;;;;5047474;28;20220;-72
2024/01/19 08:47:17;;;;;;;33.97;20.13;;;;;;;;;;5065318;28;20281;-72
2024/01/19 08:49:43;;;;;;;32.27;18.60;;;;;;;;;;5046250;28;20220;-72
2024/01/19 08:52:08;;;;;;;28.93;14.80;;;;;;;;;;5046940;28;20844;-73
2024/01/19 08:54:33;;;;;;;26.57;13.87;;;;;;;;;;5048957;28;20220;-72
2024/01/19 08:56:59;;;;;;;19.70;10.40;;;;;;;;;;5064651;28;20221;-71
2024/01/19 08:59:24;;;;;;;20.10;10.73;;;;;;;;;;5047369;28;20228;-72
2024/01/19 09:01:53;;;;;;;16.20;9.57;;;;;;;;;;5044532;28;20225;-72
2024/01/19 09:04:18;;;;;;;17.73;8.70;;;;;;;;;;5064965;28;20862;-72
2024/01/19 09:06:44;;;;;;;14.70;7.83;;;;;;;;;;5030197;28;20365;-71
2024/01/19 09:09:09;;;;;;;13.87;6.67;;;;;;;;;;5062902;28;20267;-72
2024/01/19 09:11:34;;;;;;;11.23;6.67;;;;;;;;;;5044062;28;20228;-72
2024/01/19 09:14:00;;;;;;;11.73;6.10;;;;;;;;;;5063154;28;20231;-71
2024/01/19 09:16:25;;;;;;;14.50;6.00;;;;;;;;;;5065192;28;20281;-73
2024/01/19 09:18:50;;;;;;;12.20;6.17;;;;;;;;;;5064926;28;20622;-73
2024/01/19 09:21:17;;;;;;;11.33;5.70;;;;;;;;;;5046488;28;20232;-71
2024/01/19 09:23:42;;;;;;;12.30;5.73;;;;;;;;;;5046544;28;20255;-71
2024/01/19 09:26:07;;;;;;;13.17;5.90;;;;;;;;;;5046493;28;20713;-73
2024/01/19 09:28:33;;;;;;;13.80;5.87;;;;;;;;;;5065112;28;20274;-71
2024/01/19 09:30:58;;;;;;;12.80;5.33;;;;;;;;;;5063905;28;20217;-73
2024/01/19 09:33:23;;;;;;;13.33;5.37;;;;;;;;;;5046508;28;21162;-72
2024/01/19 09:35:49;;;;;;;10.63;5.30;;;;;;;;;;5064651;28;20220;-73
2024/01/19 09:38:14;;;;;;;12.33;6.17;;;;;;;;;;5063712;28;20236;-73
2024/01/19 09:40:43;;;;;;;13.90;6.07;;;;;;;;;;5046291;28;20221;-72
2024/01/19 09:43:08;;;;;;;14.07;6.40;;;;;;;;;;5063528;28;20730;-72
2024/01/19 09:45:38;;;;;;;13.13;7.30;;;;;;;;;;5063324;28;20216;-72
2024/01/19 09:48:23;;;;;;;16.70;7.57;;;;;;;;;;5023063;28;20370;-72
2024/01/19 09:50:50;;;;;;;14.17;7.70;;;;;;;;;;5045885;28;20228;-72
2024/01/19 09:53:23;;;;;;;18.60;8.20;;;;;;;;;;5045037;28;20228;-72
2024/01/19 09:55:49;;;;;;;17.50;8.10;;;;;;;;;;5046049;28;20315;-72
2024/01/19 09:58:15;;;;;;;16.80;8.37;;;;;;;;;;5045506;28;20331;-73
2024/01/19 10:00:40;;;;;;;16.03;8.90;;;;;;;;;;5046309;28;20228;-71
2024/01/19 10:03:05;;;;;;;18.03;9.33;;;;;;;;;;5028269;28;20209;-72
2024/01/19 10:05:31;;;;;;;23.40;9.70;;;;;;;;;;5062687;28;20221;-70
2024/01/19 10:07:56;;;;;;;18.77;9.30;;;;;;;;;;5062328;28;20785;-71
2024/01/19 10:10:21;;;;;;;20.57;9.30;;;;;;;;;;5062605;28;20301;-71
2024/01/19 10:12:47;;;;;;;21.63;9.57;;;;;;;;;;5062087;28;20223;-72
2024/01/19 10:15:12;;;;;;;22.63;10.37;;;;;;;;;;5044511;28;20327;-74
2024/01/19 10:17:38;;;;;;;19.83;10.03;;;;;;;;;;5029162;28;20315;-71
2024/01/19 10:20:04;;;;;;;18.60;9.53;;;;;;;;;;5044794;28;20217;-73
2024/01/19 10:22:30;;;;;;;21.03;9.80;;;;;;;;;;5029213;28;20216;-73
2024/01/19 10:25:08;;;;;;;20.90;10.23;;;;;;;;;;5045364;28;20220;-73
2024/01/19 10:27:40;;;;;;;24.17;10.53;;;;;;;;;;5029348;28;20216;-73
2024/01/19 10:30:11;;;;;;;25.53;10.83;;;;;;;;;;5062703;28;20217;-73
2024/01/19 10:32:38;;;;;;;24.57;11.37;;;;;;;;;;5045582;28;20213;-73
2024/01/19 10:35:04;;;;;;;26.47;12.97;;;;;;;;;;5028387;28;20906;-72
2024/01/19 10:37:29;;;;;;;31.70;15.27;;;;;;;;;;5045544;28;20301;-73
2024/01/19 10:39:54;;;;;;;31.67;15.57;;;;;;;;;;5045150;28;20644;-73
2024/01/19 10:42:20;;;;;;;29.20;14.97;;;;;;;;;;5063233;28;20224;-71
2024/01/19 10:44:45;;;;;;;29.50;14.60;;;;;;;;;;5044323;28;20697;-73
2024/01/19 10:47:10;;;;;;;31.00;13.60;;;;;;;;;;5044914;28;20710;-72
2024/01/19 10:49:36;;;;;;;23.30;11.70;;;;;;;;;;5044524;28;20221;-72
2024/01/19 10:52:01;;;;;;;21.40;10.50;;;;;;;;;;5044770;28;20212;-71
2024/01/19 10:54:27;;;;;;;20.23;9.53;;;;;;;;;;5045194;28;20230;-72
2024/01/19 10:57:06;;;;;;;20.73;9.33;;;;;;;;;;5045271;28;20248;-71
2024/01/19 10:59:32;;;;;;;18.90;9.20;;;;;;;;;;5044502;28;20224;-72
2024/01/19 11:02:01;;;;;;;23.30;9.50;;;;;;;;;;5045040;28;20653;-72
2024/01/19 11:04:26;;;;;;;17.27;9.03;;;;;;;;;;5044523;28;20684;-72
2024/01/19 11:06:52;;;;;;;18.67;9.03;;;;;;;;;;5029254;28;20225;-72
2024/01/19 11:09:17;;;;;;;21.87;9.67;;;;;;;;;;5027500;28;20316;-72
2024/01/19 11:11:47;;;;;;;19.80;9.57;;;;;;;;;;5061778;28;20612;-72
2024/01/19 11:14:12;;;;;;;20.53;9.70;;;;;;;;;;5060391;28;20237;-72
2024/01/19 11:16:43;;;;;;;19.27;9.70;;;;;;;;;;5048312;28;20220;-73
2024/01/19 11:19:08;;;;;;;20.23;9.07;;;;;;;;;;5046701;28;20235;-72
2024/01/19 11:21:34;;;;;;;21.23;9.07;;;;;;;;;;5064762;28;20418;-72
2024/01/19 11:23:59;;;;;;;19.07;9.50;;;;;;;;;;5047150;28;20228;-72
2024/01/19 11:26:26;;;;;;;21.27;8.47;;;;;;;;;;5047763;28;20223;-71
2024/01/19 11:28:52;;;;;;;16.67;7.10;;;;;;;;;;5047090;28;20224;-72
2024/01/19 11:31:18;;;;;;;19.47;7.90;;;;;;;;;;5044939;28;20274;-72
2024/01/19 11:33:43;;;;;;;17.63;7.33;;;;;;;;;;5047008;28;20705;-72
2024/01/19 11:36:09;;;;;;;17.90;7.27;;;;;;;;;;5065164;28;20224;-72
2024/01/19 11:38:37;;;;;;;14.03;7.73;;;;;;;;;;5030695;28;20232;-72
2024/01/19 11:41:03;;;;;;;16.63;8.10;;;;;;;;;;5064260;28;20209;-73
2024/01/19 11:43:41;;;;;;;17.60;7.10;;;;;;;;;;5030963;28;20879;-73
2024/01/19 11:46:07;;;;;;;15.73;7.00;;;;;;;;;;5063534;28;20219;-72
2024/01/19 11:48:42;;;;;;;16.60;6.80;;;;;;;;;;5046784;28;20261;-72
2024/01/19 11:51:08;;;;;;;18.07;7.20;;;;;;;;;;5047142;28;20223;-72
2024/01/19 11:53:52;;;;;;;16.70;7.20;;;;;;;;;;5065904;28;20232;-72
2024/01/19 11:56:21;;;;;;;18.10;6.70;;;;;;;;;;5040490;28;20225;-70
2024/01/19 11:58:47;;;;;;;13.37;6.27;;;;;;;;;;5062895;28;20236;-72
2024/01/19 12:01:12;;;;;;;15.90;6.00;;;;;;;;;;5045896;28;20225;-73
2024/01/19 12:03:38;;;;;;;14.97;6.40;;;;;;;;;;5063354;28;20300;-72
2024/01/19 12:06:05;;;;;;;13.27;5.50;;;;;;;;;;5046561;28;20225;-72
2024/01/19 12:08:31;;;;;;;19.50;8.67;;;;;;;;;;4984603;28;1305221;-73
2024/01/19 12:11:03;;;;;;;13.17;4.97;;;;;;;;;;5064803;28;20313;-72
2024/01/19 12:13:30;;;;;;;10.93;4.33;;;;;;;;;;5045575;28;20224;-73
2024/01/19 12:15:55;;;;;;;11.03;3.90;;;;;;;;;;5047039;28;20602;-73
2024/01/19 12:18:21;;;;;;;8.80;3.30;;;;;;;;;;5065967;28;20228;-73
2024/01/19 12:20:46;;;;;;;9.17;2.83;;;;;;;;;;5065009;28;20322;-73
2024/01/19 12:23:13;;;;;;;13.77;4.97;;;;;;;;;;5046799;28;20251;-73
2024/01/19 12:25:38;;;;;;;12.03;5.10;;;;;;;;;;5030902;28;20224;-72
2024/01/19 12:28:04;;;;;;;11.17;4.40;;;;;;;;;;5047201;28;20623;-72
2024/01/19 12:30:39;;;;;;;9.50;2.80;;;;;;;;;;5066135;28;20290;-73
2024/01/19 12:33:18;;;;;;;12.13;4.17;;;;;;;;;;5065680;28;20231;-73
2024/01/19 12:35:45;;;;;;;11.87;4.97;;;;;;;;;;5047276;28;20244;-74
2024/01/19 12:38:10;;;;;;;7.53;2.47;;;;;;;;;;5046551;28;20323;-72
2024/01/19 12:40:36;;;;;;;5.53;1.80;;;;;;;;;;5031371;28;20760;-73
2024/01/19 12:43:02;;;;;;;6.63;3.30;;;;;;;;;;5046809;28;20224;-71
2024/01/19 12:45:28;;;;;;;6.53;2.83;;;;;;;;;;5047480;28;20282;-73
2024/01/19 12:47:53;;;;;;;8.23;3.17;;;;;;;;;;5047692;28;20232;-74
2024/01/19 12:50:18;;;;;;;7.17;2.13;;;;;;;;;;5064908;28;20251;-72
2024/01/19 12:52:44;;;;;;;6.33;2.13;;;;;;;;;;5047477;28;20693;-71
2024/01/19 12:55:10;;;;;;;7.77;1.80;;;;;;;;;;5030354;28;20694;-72
2024/01/19 12:57:35;;;;;;;10.03;3.50;;;;;;;;;;5064160;28;20236;-72
2024/01/19 13:00:07;;;;;;;5.93;2.47;;;;;;;;;;5046792;28;20217;-72
2024/01/19 13:02:33;;;;;;;5.97;2.30;;;;;;;;;;5065854;28;20248;-73
2024/01/19 13:04:58;;;;;;;8.57;2.10;;;;;;;;;;5029795;28;20260;-73
2024/01/19 13:07:24;;;;;;;5.57;1.70;;;;;;;;;;5046959;28;20220;-72
2024/01/19 13:10:05;;;;;;;5.10;1.60;;;;;;;;;;5064953;28;20236;-72
2024/01/19 13:12:33;;;;;;;4.10;1.60;;;;;;;;;;5046051;28;20255;-73
2024/01/19 13:15:05;;;;;;;5.97;1.87;;;;;;;;;;5046295;28;20719;-73
2024/01/19 13:17:30;;;;;;;6.57;1.70;;;;;;;;;;5047173;28;20286;-73
2024/01/19 13:19:56;;;;;;;3.97;1.50;;;;;;;;;;5046325;28;20647;-72
2024/01/19 13:22:21;;;;;;;10.50;4.87;;;;;;;;;;5064395;28;20706;-73
2024/01/19 13:24:48;;;;;;;7.23;2.60;;;;;;;;;;5046907;28;20316;-73
2024/01/19 13:27:13;;;;;;;7.93;2.20;;;;;;;;;;5046262;28;20221;-72
2024/01/19 13:29:38;;;;;;;7.50;2.37;;;;;;;;;;5046850;28;20278;-73
2024/01/19 13:32:04;;;;;;;6.10;1.83;;;;;;;;;;5064920;28;20278;-73
2024/01/19 13:34:30;;;;;;;7.83;1.87;;;;;;;;;;5046526;28;20277;-72
2024/01/19 13:36:55;;;;;;;21.40;9.10;;;;;;;;;;5063107;28;20247;-73
2024/01/19 13:39:20;;;;;;;58.63;23.23;;;;;;;;;;5046243;28;20224;-74
2024/01/19 13:41:46;;;;;;;9.87;3.83;;;;;;;;;;5030173;28;20216;-73
2024/01/19 13:44:11;;;;;;;10.13;4.30;;;;;;;;;;5029238;28;20233;-72
2024/01/19 13:46:36;;;;;;;6.87;2.20;;;;;;;;;;5064674;28;20793;-73
2024/01/19 13:49:02;;;;;;;7.30;3.07;;;;;;;;;;5044724;28;20225;-73
2024/01/19 13:51:27;;;;;;;7.47;2.20;;;;;;;;;;5062958;28;20302;-72
2024/01/19 13:53:53;;;;;;;6.10;1.90;;;;;;;;;;5046605;28;20227;-72
2024/01/19 13:56:18;;;;;;;7.47;2.20;;;;;;;;;;5063532;28;20228;-73
2024/01/19 13:58:43;;;;;;;6.17;2.00;;;;;;;;;;5029605;28;20242;-72
2024/01/19 14:01:09;;;;;;;5.10;2.00;;;;;;;;;;5044847;28;20224;-73
2024/01/19 14:03:34;;;;;;;6.80;2.20;;;;;;;;;;5062950;28;20228;-73
2024/01/19 14:05:59;;;;;;;10.30;2.70;;;;;;;;;;5029100;28;20249;-71
2024/01/19 14:08:25;;;;;;;6.20;1.80;;;;;;;;;;5062565;28;20217;-74
2024/01/19 14:10:50;;;;;;;6.33;1.97;;;;;;;;;;5045824;28;20314;-73
2024/01/19 14:13:16;;;;;;;6.90;1.70;;;;;;;;;;5028698;28;20316;-71
2024/01/19 14:15:43;;;;;;;7.23;2.20;;;;;;;;;;5062710;28;20300;-73
2024/01/19 14:18:09;;;;;;;7.33;2.10;;;;;;;;;;5043975;28;20713;-73
2024/01/19 14:20:34;;;;;;;9.23;2.03;;;;;;;;;;5062657;28;20232;-73